This is the latest recevied weather packets stored in our database for station/object VK2OB. If no packets are shown the sender has not sent any weather packets the latest 10 day(s).
| Time | Temp. | Humidity | Pressure | Rain* | Wind** | Luminosity | Snow |
|---|---|---|---|---|---|---|---|
| 1777512096 | 28.89° C | 45% | 1030.2 hPa | 0 mm | - | - | - |
| 1777511797 | 28.33° C | 44% | 1030.2 hPa | 0 mm | - | - | - |
| 1777511498 | 27.78° C | 44% | 1030.3 hPa | 0 mm | - | - | - |
| 1777511199 | 27.78° C | 45% | 1030.3 hPa | 0 mm | - | - | - |
| 1777510900 | 28.33° C | 41% | 1030.4 hPa | 0 mm | - | - | - |
| 1777510601 | 28.33° C | 42% | 1030.4 hPa | 0 mm | - | - | - |
| 1777510302 | 28.33° C | 43% | 1030.4 hPa | 0 mm | - | - | - |
| 1777510003 | 27.78° C | 49% | 1030.4 hPa | 0 mm | - | - | - |
| 1777509704 | 26.67° C | 50% | 1030.5 hPa | 0 mm | - | - | - |
| 1777509405 | 25.56° C | 59% | 1030.5 hPa | 0 mm | - | - | - |
| 1777509106 | 25° C | 59% | 1030.5 hPa | 0 mm | - | - | - |
| 1777508807 | 25.56° C | 55% | 1030.7 hPa | 0 mm | - | - | - |
| 1777508508 | 26.11° C | 52% | 1030.8 hPa | 0 mm | - | - | - |
| 1777508209 | 27.22° C | 49% | 1030.8 hPa | 0 mm | - | - | - |
| 1777507910 | 27.78° C | 49% | 1030.8 hPa | 0 mm | - | - | - |
| 1777507610 | 27.78° C | 50% | 1030.8 hPa | 0 mm | - | - | - |
| 1777507312 | 26.67° C | 55% | 1030.8 hPa | 0 mm | - | - | - |
| 1777507013 | 26.11° C | 57% | 1030.7 hPa | 0 mm | - | - | - |
| 1777506714 | 26.11° C | 54% | 1030.9 hPa | 0 mm | - | - | - |
| 1777506415 | 26.11° C | 56% | 1030.9 hPa | 0 mm | - | - | - |
| 1777506116 | 25.56° C | 60% | 1030.9 hPa | 0 mm | - | - | - |
| 1777505817 | 25° C | 64% | 1030.9 hPa | 0 mm | - | - | - |
| 1777505518 | 23.33° C | 72% | 1030.9 hPa | 0 mm | - | - | - |
| 1777505219 | 21.67° C | 74% | 1030.9 hPa | 0 mm | - | - | - |
| 1777504920 | 21.11° C | 76% | 1030.9 hPa | 0 mm | - | - | - |
* Rain latest hour (hover to see other rain measurements)
** Current wind speed in m/s (hover to see current wind gust speed)